Time;durP1;ratioP1;P1;durP2;ratioP2;P2;SDS_P1;SDS_P2;PMS_P1;PMS_P2;Temp;Humidity;BMP_temperature;BMP_pressure;BME280_temperature;BME280_humidity;BME280_pressure;Samples;Min_cycle;Max_cycle;Signal;HPM_P1;HPM_P2
2022/07/23 00:00:30;;;;;;;14.02;4.30;;;25.50;87.30;;;;;;5111550;28;20042;-48
2022/07/23 00:02:56;;;;;;;11.38;4.25;;;25.50;87.20;;;;;;5042724;28;20038;-48
2022/07/23 00:05:22;;;;;;;11.13;4.15;;;25.50;87.30;;;;;;4994162;28;20038;-47
2022/07/23 00:07:47;;;;;;;12.27;4.40;;;25.40;87.30;;;;;;5048715;28;20041;-48
2022/07/23 00:10:13;;;;;;;7.90;4.13;;;25.30;87.60;;;;;;5054661;28;20113;-48
2022/07/23 00:12:40;;;;;;;6.80;3.90;;;25.20;87.50;;;;;;5049013;28;20183;-47
2022/07/23 00:15:06;;;;;;;7.22;4.47;;;25.20;87.40;;;;;;5044834;28;20463;-47
2022/07/23 00:17:32;;;;;;;10.05;3.95;;;25.20;87.60;;;;;;5040354;28;20055;-47
2022/07/23 00:19:58;;;;;;;7.93;3.88;;;25.20;88.00;;;;;;5035091;28;20119;-47
2022/07/23 00:22:24;;;;;;;10.95;4.70;;;25.20;87.90;;;;;;5053426;28;20519;-47
2022/07/23 00:24:50;;;;;;;8.40;4.45;;;25.30;87.80;;;;;;5000518;28;20065;-48
2022/07/23 00:27:16;;;;;;;11.10;4.50;;;25.30;87.80;;;;;;5041843;28;20112;-47
2022/07/23 00:29:42;;;;;;;10.02;4.68;;;25.30;87.80;;;;;;5020058;28;20510;-47
2022/07/23 00:32:07;;;;;;;10.63;4.40;;;25.20;87.70;;;;;;5038805;28;20037;-48
2022/07/23 00:34:33;;;;;;;12.35;4.57;;;25.20;87.90;;;;;;5041845;28;20508;-48
2022/07/23 00:36:59;;;;;;;13.93;4.80;;;25.20;88.30;;;;;;5111745;28;20395;-47
2022/07/23 00:39:25;;;;;;;8.07;3.83;;;25.20;88.60;;;;;;5058701;28;20039;-48
2022/07/23 00:41:51;;;;;;;9.25;4.18;;;25.20;88.50;;;;;;5058700;28;20031;-47
2022/07/23 00:44:25;;;;;;;9.52;4.47;;;25.20;88.50;;;;;;5111685;28;20024;-47
2022/07/23 00:46:53;;;;;;;8.48;3.85;;;25.20;88.40;;;;;;5110458;28;20034;-47
2022/07/23 00:49:21;;;;;;;7.40;4.05;;;25.10;88.50;;;;;;5111100;28;20471;-46
2022/07/23 00:51:48;;;;;;;16.45;5.10;;;25.20;88.70;;;;;;5074442;28;20051;-48
2022/07/23 00:54:15;;;;;;;10.15;4.20;;;25.20;88.90;;;;;;5075185;28;20036;-47
2022/07/23 00:56:43;;;;;;;10.30;4.10;;;25.20;88.90;;;;;;5058060;28;20066;-47
2022/07/23 00:59:10;;;;;;;9.32;4.35;;;25.10;88.80;;;;;;5047941;28;20037;-47
2022/07/23 01:01:36;;;;;;;7.43;4.15;;;25.10;88.90;;;;;;5047120;28;20167;-48
2022/07/23 01:04:01;;;;;;;11.23;4.43;;;25.10;88.90;;;;;;5047678;28;20060;-47
2022/07/23 01:06:28;;;;;;;9.93;4.63;;;25.10;88.90;;;;;;4965520;28;20378;-47
2022/07/23 01:08:55;;;;;;;8.57;3.92;;;25.10;88.70;;;;;;5047743;28;20080;-47
2022/07/23 01:11:24;;;;;;;8.32;4.05;;;25.10;89.00;;;;;;5048384;28;20033;-47
2022/07/23 01:13:49;;;;;;;8.73;4.10;;;25.00;89.10;;;;;;5048248;28;20501;-48
2022/07/23 01:16:15;;;;;;;10.35;4.60;;;25.00;89.30;;;;;;5030981;28;20045;-47
2022/07/23 01:18:41;;;;;;;8.65;4.22;;;25.00;90.50;;;;;;5047639;28;20065;-48
2022/07/23 01:21:08;;;;;;;5.35;3.85;;;24.90;90.30;;;;;;5051868;28;20064;-48
2022/07/23 01:23:34;;;;;;;6.82;4.03;;;24.90;90.80;;;;;;5050919;28;20033;-47
2022/07/23 01:26:00;;;;;;;7.53;4.82;;;24.80;90.00;;;;;;5017882;28;20464;-47
2022/07/23 01:28:26;;;;;;;9.93;4.15;;;24.90;90.00;;;;;;5051839;28;20082;-47
2022/07/23 01:30:52;;;;;;;10.75;4.57;;;24.80;90.10;;;;;;5106766;27;20040;-47
2022/07/23 01:33:17;;;;;;;7.40;4.10;;;24.30;90.00;;;;;;5080403;28;20043;-47
2022/07/23 01:35:43;;;;;;;12.93;4.63;;;24.20;95.10;;;;;;5121120;27;20533;-48
2022/07/23 01:38:09;;;;;;;8.70;4.55;;;24.10;91.00;;;;;;5075897;28;20118;-48
2022/07/23 01:40:34;;;;;;;15.40;4.57;;;24.10;91.10;;;;;;5115936;27;20036;-48
2022/07/23 01:43:00;;;;;;;8.77;4.65;;;24.20;96.90;;;;;;5098581;27;20027;-47
2022/07/23 01:45:26;;;;;;;7.32;3.85;;;24.30;96.60;;;;;;5115671;27;20066;-48
2022/07/23 01:47:52;;;;;;;8.30;4.53;;;;;;;;;;5082381;28;20097;-47
2022/07/23 01:50:18;;;;;;;8.50;4.13;;;;;;;;;;5117549;27;20031;-47
2022/07/23 01:52:44;;;;;;;10.60;4.32;;;;;;;;;;5116626;27;20071;-47
2022/07/23 01:55:10;;;;;;;6.35;4.25;;;23.60;93.20;;;;;;5115701;27;20019;-47
2022/07/23 01:57:36;;;;;;;10.73;4.95;;;23.70;97.50;;;;;;5057200;28;20059;-47
2022/07/23 02:00:03;;;;;;;9.13;4.13;;;;;;;;;;5065817;28;20035;-48
2022/07/23 02:02:28;;;;;;;5.82;4.07;;;23.30;99.90;;;;;;5116821;27;20031;-47
2022/07/23 02:04:54;;;;;;;10.70;4.72;;;;;;;;;;5120392;27;20052;-47
2022/07/23 02:07:21;;;;;;;9.45;4.50;;;;;;;;;;5121011;27;20432;-47
2022/07/23 02:09:47;;;;;;;7.90;3.72;;;;;;;;;;5114874;28;20084;-47
2022/07/23 02:12:13;;;;;;;9.13;4.22;;;;;;;;;;5116873;27;20035;-47
2022/07/23 02:14:39;;;;;;;9.55;4.53;;;;;;;;;;5117135;27;20019;-47
2022/07/23 02:17:05;;;;;;;7.45;4.20;;;;;;;;;;5117630;27;20035;-47
2022/07/23 02:19:32;;;;;;;6.45;4.25;;;;;;;;;;5114757;27;20035;-48
2022/07/23 02:21:58;;;;;;;10.30;4.70;;;;;;;;;;5113724;28;20062;-47
2022/07/23 02:24:24;;;;;;;9.82;4.25;;;;;;;;;;5059764;28;20391;-47
2022/07/23 02:26:50;;;;;;;12.05;4.30;;;;;;;;;;5113604;28;20473;-47
2022/07/23 02:29:16;;;;;;;7.63;4.38;;;;;;;;;;5114399;28;20027;-47
2022/07/23 02:31:42;;;;;;;10.20;3.90;;;;;;;;;;5114444;28;20028;-47
2022/07/23 02:34:11;;;;;;;11.13;4.40;;;;;;;;;;5050501;28;20048;-46
2022/07/23 02:36:37;;;;;;;10.48;4.50;;;;;;;;;;5113459;28;20035;-47
2022/07/23 02:39:03;;;;;;;13.35;4.78;;;;;;;;;;5107574;28;20028;-47
2022/07/23 02:41:29;;;;;;;16.02;5.10;;;;;;;;;;5081317;28;20050;-48
2022/07/23 02:43:56;;;;;;;9.15;4.20;;;;;;;;;;5113888;28;20123;-47
2022/07/23 02:46:22;;;;;;;11.18;4.55;;;;;;;;;;5113591;28;20039;-48
2022/07/23 02:48:48;;;;;;;9.55;4.30;;;;;;;;;;5084614;28;20036;-47
2022/07/23 02:51:14;;;;;;;7.28;4.88;;;;;;;;;;5114233;28;20046;-48
2022/07/23 02:53:40;;;;;;;8.60;4.60;;;;;;;;;;5113028;28;20027;-48
2022/07/23 02:56:06;;;;;;;11.82;5.00;;;;;;;;;;5113616;28;20020;-48
2022/07/23 02:58:32;;;;;;;11.60;6.10;;;;;;;;;;5079577;28;20054;-47
2022/07/23 03:00:58;;;;;;;8.75;4.50;;;;;;;;;;5113326;28;20091;-48
2022/07/23 03:03:25;;;;;;;7.10;4.35;;;;;;;;;;5113553;28;20030;-46
2022/07/23 03:05:51;;;;;;;10.60;4.80;;;;;;;;;;5113717;28;20031;-48
2022/07/23 03:08:17;;;;;;;9.57;4.38;;;;;;;;;;5113071;28;20118;-46
2022/07/23 03:10:43;;;;;;;9.65;4.57;;;;;;;;;;5112332;28;20038;-48
2022/07/23 03:13:09;;;;;;;7.65;3.92;;;;;;;;;;5113309;28;20039;-48
2022/07/23 03:15:35;;;;;;;13.30;4.57;;;;;;;;;;5055638;28;20035;-47
2022/07/23 03:18:01;;;;;;;10.95;4.53;;;22.20;92.60;;;;;;5112912;28;20038;-47
2022/07/23 03:34:18;;;;;;;73.00;51.78;;;21.40;95.70;;;;;;4982405;27;2093327;-46
2022/07/23 03:36:44;;;;;;;9.10;4.65;;;21.20;96.60;;;;;;5038030;28;20605;-46
2022/07/23 03:39:09;;;;;;;7.68;4.45;;;21.00;97.50;;;;;;5038161;28;20044;-46
2022/07/23 03:41:35;;;;;;;11.10;5.60;;;21.00;97.90;;;;;;5035247;28;20032;-46
2022/07/23 03:44:01;;;;;;;10.60;4.82;;;21.10;98.10;;;;;;5086006;28;20075;-46
2022/07/23 03:46:26;;;;;;;10.60;5.57;;;21.40;98.00;;;;;;5039806;28;20055;-47
2022/07/23 03:48:52;;;;;;;10.93;5.88;;;21.80;97.60;;;;;;5000433;28;20552;-46
2022/07/23 03:51:18;;;;;;;14.90;6.03;;;22.20;97.20;;;;;;5088880;28;20049;-46
2022/07/23 03:53:44;;;;;;;14.25;5.03;;;;;;;;;;5035218;28;20030;-49
2022/07/23 03:56:10;;;;;;;8.05;5.03;;;22.70;96.20;;;;;;5081792;28;20033;-49
2022/07/23 03:58:35;;;;;;;15.10;5.30;;;22.80;95.80;;;;;;5085791;28;20038;-47
2022/07/23 04:01:01;;;;;;;17.85;9.68;;;22.70;95.70;;;;;;5065782;28;20046;-46
2022/07/23 04:03:27;;;;;;;13.48;4.65;;;22.60;95.60;;;;;;5024558;28;20048;-47
2022/07/23 04:05:53;;;;;;;14.60;4.80;;;22.70;95.70;;;;;;5033794;28;20195;-46
2022/07/23 04:08:18;;;;;;;13.60;4.93;;;22.90;95.80;;;;;;5069313;28;20400;-47
2022/07/23 04:10:44;;;;;;;9.80;4.50;;;23.10;95.80;;;;;;5044221;28;20048;-49
2022/07/23 04:13:10;;;;;;;14.40;5.00;;;23.20;95.50;;;;;;5014322;28;20036;-46
2022/07/23 04:15:37;;;;;;;9.13;4.93;;;23.40;95.60;;;;;;5056701;28;20082;-46
2022/07/23 04:18:03;;;;;;;8.93;4.85;;;23.50;95.30;;;;;;5035135;28;20068;-49
2022/07/23 04:20:28;;;;;;;43.53;36.42;;;23.20;95.20;;;;;;5079683;28;20036;-47
2022/07/23 04:22:54;;;;;;;9.40;4.90;;;23.20;95.50;;;;;;5073980;28;20047;-47
2022/07/23 04:25:20;;;;;;;11.95;5.05;;;23.00;95.70;;;;;;5068906;28;20028;-47
2022/07/23 04:27:46;;;;;;;198.95;179.13;;;23.30;95.90;;;;;;5078179;28;20032;-47
2022/07/23 04:30:11;;;;;;;14.13;5.60;;;23.60;95.80;;;;;;5059337;28;20046;-46
2022/07/23 04:32:37;;;;;;;10.25;5.30;;;;;;;;;;5082386;28;20122;-47
2022/07/23 04:35:04;;;;;;;13.88;6.63;;;;;;;;;;5065364;28;20068;-47
2022/07/23 04:37:30;;;;;;;13.52;5.88;;;;;;;;;;5059703;28;20484;-45
2022/07/23 04:39:55;;;;;;;13.48;5.28;;;24.40;96.70;;;;;;5054921;28;20029;-46
2022/07/23 04:42:21;;;;;;;23.77;13.98;;;24.50;94.60;;;;;;4979372;28;20046;-47
2022/07/23 04:44:47;;;;;;;17.10;7.57;;;24.50;94.80;;;;;;4979986;28;20133;-48
2022/07/23 04:47:13;;;;;;;23.25;15.90;;;24.60;94.40;;;;;;4984982;28;20030;-47
2022/07/23 04:49:38;;;;;;;65.20;57.90;;;24.60;94.30;;;;;;4984997;28;20039;-47
2022/07/23 04:52:04;;;;;;;10.18;5.65;;;24.70;94.30;;;;;;4981955;28;20035;-47
2022/07/23 04:54:30;;;;;;;29.42;16.88;;;24.80;94.20;;;;;;4986626;28;20048;-47
2022/07/23 04:56:55;;;;;;;11.50;5.57;;;24.90;94.20;;;;;;4984003;28;20437;-46
2022/07/23 04:59:22;;;;;;;8.38;5.28;;;25.10;94.20;;;;;;5052844;28;20035;-48
2022/07/23 05:01:47;;;;;;;14.02;5.38;;;25.20;94.30;;;;;;4985275;28;20493;-47
2022/07/23 05:04:13;;;;;;;12.25;5.55;;;25.30;94.10;;;;;;4982469;28;20073;-47
2022/07/23 05:06:39;;;;;;;10.52;5.13;;;25.30;94.10;;;;;;4985444;28;20034;-47
2022/07/23 05:09:05;;;;;;;12.63;6.30;;;25.40;93.70;;;;;;5021345;28;20042;-47
2022/07/23 05:11:30;;;;;;;10.38;5.18;;;25.50;93.10;;;;;;4983662;28;20462;-47
2022/07/23 05:13:56;;;;;;;34.40;18.67;;;25.60;93.30;;;;;;4982614;28;20064;-47
2022/07/23 05:16:22;;;;;;;9.45;4.70;;;25.80;93.80;;;;;;4987638;28;20067;-47
2022/07/23 05:18:47;;;;;;;12.07;9.18;;;25.80;93.30;;;;;;4981029;28;20042;-46
2022/07/23 05:21:13;;;;;;;17.85;8.13;;;25.90;93.30;;;;;;4982705;28;20038;-47
2022/07/23 05:23:39;;;;;;;10.55;7.88;;;26.10;98.60;;;;;;4977254;28;20046;-48
2022/07/23 05:26:05;;;;;;;10.63;5.65;;;;;;;;;;4980237;28;20015;-47
2022/07/23 05:28:31;;;;;;;24.63;11.93;;;;;;;;;;5020544;28;20127;-47
2022/07/23 05:30:57;;;;;;;16.83;5.68;;;26.50;99.90;;;;;;4982317;28;20122;-47
2022/07/23 05:33:23;;;;;;;11.48;4.65;;;;;;;;;;5006282;28;20132;-47
2022/07/23 05:35:49;;;;;;;11.25;4.97;;;26.50;99.90;;;;;;5022896;28;20063;-47
2022/07/23 05:38:15;;;;;;;12.80;5.65;;;;;;;;;;5019054;28;20025;-45
2022/07/23 05:40:41;;;;;;;10.30;5.38;;;27.00;91.60;;;;;;5017722;28;20376;-46
2022/07/23 05:43:06;;;;;;;12.95;5.68;;;27.10;91.60;;;;;;5023691;28;20040;-47
2022/07/23 05:45:32;;;;;;;9.55;4.72;;;27.50;98.80;;;;;;5021606;28;20029;-47
2022/07/23 05:47:58;;;;;;;14.88;7.72;;;27.30;93.80;;;;;;4974336;28;20045;-46
2022/07/23 05:50:24;;;;;;;8.38;5.30;;;;;;;;;;5028863;28;20034;-48
2022/07/23 05:52:50;;;;;;;25.38;11.45;;;27.70;90.90;;;;;;5021495;28;20396;-47
2022/07/23 05:55:15;;;;;;;9.77;4.75;;;27.90;94.10;;;;;;5021073;28;20030;-47
2022/07/23 05:57:42;;;;;;;9.77;5.03;;;;;;;;;;5017713;28;20025;-47
2022/07/23 06:00:10;;;;;;;16.85;5.78;;;27.90;88.50;;;;;;5021918;28;20124;-47
2022/07/23 06:02:37;;;;;;;9.05;4.38;;;28.00;88.50;;;;;;5033846;28;20094;-47
2022/07/23 06:05:02;;;;;;;11.05;5.30;;;28.10;87.40;;;;;;5024074;28;20050;-47
2022/07/23 06:07:28;;;;;;;8.98;4.70;;;28.20;88.00;;;;;;4977196;28;20076;-47
2022/07/23 06:09:54;;;;;;;11.90;4.90;;;;;;;;;;5024574;28;20030;-47
2022/07/23 06:12:20;;;;;;;11.68;5.13;;;;;;;;;;5022919;28;20037;-48
2022/07/23 06:14:49;;;;;;;9.20;4.90;;;;;;;;;;5022949;28;20029;-47
2022/07/23 06:17:15;;;;;;;15.90;6.13;;;28.70;99.90;;;;;;5023982;28;20556;-52
2022/07/23 06:19:41;;;;;;;18.55;7.28;;;28.80;92.90;;;;;;5022804;28;20116;-48
2022/07/23 06:22:07;;;;;;;14.00;6.75;;;;;;;;;;5073189;28;20480;-49
2022/07/23 06:24:32;;;;;;;12.77;5.28;;;28.90;88.10;;;;;;5025225;28;20057;-56
2022/07/23 06:26:58;;;;;;;11.63;5.35;;;28.80;89.30;;;;;;5015518;28;20061;-54
2022/07/23 06:29:24;;;;;;;11.00;5.60;;;28.80;89.10;;;;;;5043197;28;20038;-53
2022/07/23 06:31:50;;;;;;;13.50;5.88;;;28.80;89.40;;;;;;5022331;28;20029;-49
2022/07/23 06:34:15;;;;;;;10.50;5.07;;;29.20;92.20;;;;;;5052474;28;20045;-49
2022/07/23 06:36:42;;;;;;;8.80;5.18;;;;;;;;;;5023435;28;20014;-54
2022/07/23 06:39:08;;;;;;;8.60;5.40;;;;;;;;;;5018018;28;20033;-55
2022/07/23 06:41:33;;;;;;;13.52;6.07;;;29.40;85.30;;;;;;5020642;28;20071;-50
2022/07/23 06:43:59;;;;;;;9.45;4.75;;;;;;;;;;5017964;28;20054;-51
2022/07/23 06:46:25;;;;;;;11.63;5.20;;;;;;;;;;5018776;28;20058;-50
2022/07/23 06:48:51;;;;;;;12.63;5.03;;;30.00;92.10;;;;;;5074866;28;20077;-50
2022/07/23 06:51:17;;;;;;;15.35;5.55;;;29.90;91.70;;;;;;5021670;28;20499;-50
2022/07/23 06:53:43;;;;;;;20.23;6.57;;;30.10;91.20;;;;;;5023331;28;20108;-54
2022/07/23 06:56:09;;;;;;;13.95;5.50;;;30.20;85.10;;;;;;5017575;28;20033;-50
2022/07/23 06:58:34;;;;;;;15.43;6.25;;;30.30;86.60;;;;;;5069368;28;20037;-52
2022/07/23 07:01:01;;;;;;;10.48;5.40;;;;;;;;;;5027277;28;20045;-51
2022/07/23 07:03:26;;;;;;;12.68;5.05;;;30.80;92.90;;;;;;5024422;28;20037;-52
2022/07/23 07:05:53;;;;;;;16.60;5.93;;;;;;;;;;5023131;28;20037;-52
2022/07/23 07:08:19;;;;;;;15.07;5.18;;;;;;;;;;5020310;28;20114;-51
2022/07/23 07:10:45;;;;;;;12.70;5.30;;;;;;;;;;5024311;28;20037;-51
2022/07/23 07:13:11;;;;;;;18.75;5.88;;;;;;;;;;5018744;28;20117;-51
2022/07/23 07:15:37;;;;;;;17.65;6.70;;;;;;;;;;5019213;28;20090;-51
2022/07/23 07:18:03;;;;;;;11.82;5.25;;;;;;;;;;5021760;28;20026;-51
2022/07/23 07:20:29;;;;;;;9.40;4.88;;;;;;;;;;5020588;28;20036;-50
2022/07/23 07:22:56;;;;;;;13.48;6.03;;;;;;;;;;5015747;28;20504;-48
2022/07/23 07:25:21;;;;;;;11.48;4.95;;;31.90;83.10;;;;;;5019423;28;20022;-55
2022/07/23 07:27:47;;;;;;;14.40;4.95;;;32.10;84.40;;;;;;5019343;28;20083;-54
2022/07/23 07:30:13;;;;;;;11.10;6.22;;;32.20;83.70;;;;;;5068395;28;20453;-51
2022/07/23 07:32:39;;;;;;;12.63;5.70;;;32.20;82.90;;;;;;5023330;28;20049;-52
2022/07/23 07:35:06;;;;;;;11.98;5.63;;;32.30;83.50;;;;;;5091758;28;20053;-50
2022/07/23 07:37:33;;;;;;;10.98;5.15;;;32.30;82.10;;;;;;4996400;28;20038;-52
2022/07/23 07:39:59;;;;;;;14.00;5.75;;;32.40;82.60;;;;;;5018477;28;20492;-53
2022/07/23 07:42:24;;;;;;;11.98;5.53;;;32.50;82.10;;;;;;4979950;28;20050;-51
2022/07/23 07:44:50;;;;;;;11.55;4.88;;;32.60;82.90;;;;;;5023624;28;20040;-50
2022/07/23 07:47:16;;;;;;;8.15;4.45;;;;;;;;;;5018734;28;20053;-53
2022/07/23 07:49:43;;;;;;;7.72;4.85;;;;;;;;;;5019350;28;20108;-53
2022/07/23 07:52:09;;;;;;;14.57;4.82;;;;;;;;;;5019604;28;20029;-55
2022/07/23 07:54:36;;;;;;;10.48;5.00;;;;;;;;;;5075959;28;20144;-56
2022/07/23 07:57:02;;;;;;;15.93;5.20;;;;;;;;;;5020014;28;20113;-54
2022/07/23 07:59:28;;;;;;;11.85;4.55;;;;;;;;;;5016148;28;20100;-55
2022/07/23 08:01:54;;;;;;;10.75;5.28;;;;;;;;;;5021479;28;20030;-57
2022/07/23 08:04:21;;;;;;;7.88;4.80;;;;;;;;;;5009536;28;20061;-56
2022/07/23 08:06:46;;;;;;;10.25;4.72;;;33.80;85.40;;;;;;5024425;28;20465;-51
2022/07/23 08:37:54;;;;;;;10.77;4.82;;;;;;;;;;5140687;27;20376;-54
2022/07/23 08:40:21;;;;;;;12.75;4.20;;;35.60;76.00;;;;;;5132385;27;20108;-54
2022/07/23 08:42:51;;;;;;;11.85;4.40;;;35.60;75.30;;;;;;5109235;27;20040;-53
2022/07/23 08:45:22;;;;;;;7.28;3.85;;;35.50;73.60;;;;;;5117271;28;20063;-53
2022/07/23 08:47:53;;;;;;;8.60;4.72;;;35.70;74.30;;;;;;5115415;27;20023;-53
2022/07/23 08:50:20;;;;;;;;;;;35.90;74.80;;;;;;5111488;27;20058;-54
2022/07/23 08:52:47;;;;;;;10.07;4.15;;;36.00;74.40;;;;;;5120582;27;19914;-53
2022/07/23 08:55:13;;;;;;;8.40;4.38;;;36.10;74.60;;;;;;5124004;28;20393;-54
2022/07/23 08:57:39;;;;;;;14.25;5.45;;;36.20;73.80;;;;;;5121719;27;20118;-54
2022/07/23 09:00:06;;;;;;;9.23;5.10;;;36.30;73.60;;;;;;5122452;28;20443;-55
2022/07/23 09:02:39;;;;;;;12.55;4.05;;;36.40;73.20;;;;;;5105110;28;20039;-55
2022/07/23 09:05:06;;;;;;;11.07;4.75;;;36.30;73.60;;;;;;5119231;28;20035;-52
2022/07/23 09:07:32;;;;;;;13.02;5.65;;;36.40;72.30;;;;;;5124353;27;20487;-51
2022/07/23 09:10:09;;;;;;;9.07;4.18;;;36.60;73.50;;;;;;5122014;27;20035;-55
2022/07/23 09:12:35;;;;;;;8.38;4.10;;;36.80;74.20;;;;;;5123820;27;20039;-54
2022/07/23 09:15:07;;;;;;;9.35;3.83;;;36.70;71.30;;;;;;5123581;27;20034;-55
2022/07/23 09:17:42;;;;;;;11.90;3.80;;;36.70;71.30;;;;;;5098444;28;20043;-52
2022/07/23 09:20:09;;;;;;;9.65;4.60;;;36.90;71.60;;;;;;5097435;28;20036;-54
2022/07/23 09:22:35;;;;;;;9.10;4.07;;;37.00;71.80;;;;;;5101556;28;20613;-55
2022/07/23 09:25:14;;;;;;;10.95;4.47;;;36.40;70.70;;;;;;5103552;28;20024;-52
2022/07/23 09:28:02;;;;;;;7.43;4.20;;;36.90;72.10;;;;;;5097463;28;20439;-54
2022/07/23 09:30:30;;;;;;;10.48;4.25;;;37.10;71.30;;;;;;5095244;28;20039;-53
2022/07/23 09:33:12;;;;;;;8.35;4.05;;;37.50;73.40;;;;;;5068833;28;20044;-55
2022/07/23 09:35:44;;;;;;;6.32;3.78;;;37.80;71.80;;;;;;5104086;28;20035;-54
2022/07/23 09:38:10;;;;;;;11.07;3.95;;;;;;;;;;5087578;28;20040;-52
2022/07/23 09:40:36;;;;;;;11.75;3.95;;;;;;;;;;5085596;28;20108;-52
2022/07/23 09:43:02;;;;;;;9.80;4.18;;;;;;;;;;5068471;28;20036;-55
2022/07/23 09:45:28;;;;;;;8.40;3.78;;;38.40;92.70;;;;;;5088526;28;20040;-56
2022/07/23 09:48:16;;;;;;;7.50;3.60;;;38.30;67.90;;;;;;5090791;28;20039;-55
2022/07/23 09:50:44;;;;;;;7.13;4.10;;;38.50;72.10;;;;;;5104709;28;20508;-54
2022/07/23 09:53:23;;;;;;;10.45;4.57;;;38.10;66.90;;;;;;5106815;28;20071;-56
2022/07/23 09:55:49;;;;;;;7.78;3.90;;;;;;;;;;5106506;28;20072;-54
2022/07/23 09:58:17;;;;;;;9.05;3.60;;;;;;;;;;5105446;28;20051;-55
2022/07/23 10:00:45;;;;;;;6.88;4.18;;;38.90;67.80;;;;;;5105549;28;20054;-53
2022/07/23 10:03:12;;;;;;;6.35;3.45;;;38.90;68.40;;;;;;5104513;28;20027;-55
2022/07/23 10:05:39;;;;;;;7.25;3.33;;;38.90;66.90;;;;;;5106305;28;20059;-53
2022/07/23 10:08:07;;;;;;;7.75;3.60;;;39.20;66.80;;;;;;5104934;28;20035;-53
2022/07/23 10:10:33;;;;;;;10.38;4.15;;;39.40;66.20;;;;;;5105310;28;20077;-55
2022/07/23 10:15:44;;;;;;;6.68;3.45;;;39.30;65.30;;;;;;5099800;27;20046;-54
2022/07/23 10:18:12;;;;;;;6.90;3.13;;;39.70;66.30;;;;;;5092920;27;20040;-54
2022/07/23 10:20:39;;;;;;;13.07;4.30;;;39.70;65.10;;;;;;5103129;27;20462;-57
2022/07/23 10:23:16;;;;;;;8.82;3.95;;;39.80;65.90;;;;;;5100661;28;20031;-55
2022/07/23 10:26:21;;;;;;;6.35;3.03;;;39.70;66.20;;;;;;5115220;27;20030;-57
2022/07/23 10:28:50;;;;;;;6.85;4.10;;;39.90;65.70;;;;;;5116523;27;20019;-55
2022/07/23 10:31:40;;;;;;;6.85;3.88;;;40.10;66.00;;;;;;5117159;27;20058;-53
2022/07/23 10:34:45;;;;;;;6.57;3.15;;;40.20;67.30;;;;;;5111366;27;20019;-56
2022/07/23 10:37:23;;;;;;;7.90;3.22;;;40.30;67.40;;;;;;5059141;28;20053;-57
2022/07/23 10:40:11;;;;;;;8.35;3.35;;;40.70;66.30;;;;;;5063297;28;20028;-56
2022/07/23 10:42:38;;;;;;;8.40;3.38;;;40.80;66.10;;;;;;5056407;28;20037;-56
2022/07/23 10:45:24;;;;;;;8.65;3.17;;;40.90;65.80;;;;;;5061791;28;20537;-52
2022/07/23 10:47:53;;;;;;;7.05;3.75;;;40.60;64.40;;;;;;5060792;28;20076;-55
2022/07/23 10:50:23;;;;;;;7.15;3.17;;;40.40;63.90;;;;;;5065175;28;20028;-56
2022/07/23 10:53:09;;;;;;;12.95;4.35;;;40.30;64.10;;;;;;5049099;28;20592;-55
2022/07/23 10:55:35;;;;;;;7.60;3.60;;;40.00;63.80;;;;;;5064908;28;20479;-53
2022/07/23 10:58:03;;;;;;;6.65;3.53;;;39.90;63.40;;;;;;5060329;28;20043;-56
2022/07/23 11:00:32;;;;;;;8.43;3.90;;;40.30;63.80;;;;;;5057547;28;20071;-54
2022/07/23 11:03:00;;;;;;;8.20;3.45;;;40.70;63.80;;;;;;5067323;28;20028;-55
2022/07/23 11:05:43;;;;;;;8.60;3.85;;;41.00;63.80;;;;;;5065824;28;20036;-55
2022/07/23 11:08:12;;;;;;;9.63;3.35;;;41.10;64.20;;;;;;5061171;28;20512;-56
2022/07/23 11:10:45;;;;;;;8.15;3.55;;;41.20;63.20;;;;;;5062871;28;20086;-55
2022/07/23 11:13:31;;;;;;;5.15;3.50;;;41.50;63.60;;;;;;5076966;28;20092;-54
2022/07/23 11:16:08;;;;;;;8.18;4.05;;;41.60;63.30;;;;;;5117690;27;20151;-55
2022/07/23 11:18:40;;;;;;;9.25;3.80;;;41.90;63.70;;;;;;5110279;28;20032;-55
2022/07/23 11:21:21;;;;;;;6.45;3.33;;;41.70;62.50;;;;;;5105865;28;20482;-54
2022/07/23 11:24:08;;;;;;;;;;;41.50;62.80;;;;;;5101924;28;20089;-54
2022/07/23 11:26:43;;;;;;;9.75;3.70;;;41.70;63.10;;;;;;5109457;28;19979;-53
2022/07/23 11:29:42;;;;;;;6.22;3.63;;;41.50;62.70;;;;;;5106472;28;20027;-52
2022/07/23 11:32:27;;;;;;;5.05;4.05;;;41.50;62.40;;;;;;5088619;28;20036;-52
2022/07/23 11:34:53;;;;;;;9.73;6.25;;;41.40;62.40;;;;;;5084193;28;20185;-51
2022/07/23 11:37:34;;;;;;;6.85;5.00;;;41.50;62.90;;;;;;5088000;28;20184;-54
2022/07/23 11:40:02;;;;;;;10.70;5.30;;;41.90;63.00;;;;;;5087173;28;20024;-54
2022/07/23 11:42:28;;;;;;;8.82;3.90;;;42.10;63.10;;;;;;5048395;28;20032;-52
2022/07/23 11:44:53;;;;;;;8.32;3.70;;;42.60;62.80;;;;;;5021459;28;20040;-52
2022/07/23 11:47:24;;;;;;;7.45;4.40;;;41.80;62.10;;;;;;5088620;28;20589;-53
2022/07/23 11:49:58;;;;;;;9.70;3.90;;;42.00;62.60;;;;;;5089407;28;20055;-55
2022/07/23 11:52:25;;;;;;;9.95;4.20;;;42.10;64.10;;;;;;5054222;28;20040;-53
2022/07/23 11:54:54;;;;;;;7.85;4.18;;;42.70;64.20;;;;;;5088224;28;20545;-53
2022/07/23 11:57:24;;;;;;;6.32;3.85;;;42.60;63.80;;;;;;5068476;28;20062;-57
2022/07/23 11:59:54;;;;;;;9.05;4.25;;;42.30;63.30;;;;;;5089271;28;20061;-54
2022/07/23 12:02:21;;;;;;;7.05;4.28;;;42.70;63.90;;;;;;5038417;28;20110;-55
2022/07/23 12:04:49;;;;;;;9.10;3.75;;;42.80;63.10;;;;;;5087950;28;20028;-56
2022/07/23 12:07:38;;;;;;;9.77;4.03;;;43.10;63.90;;;;;;5093144;28;20044;-56
2022/07/23 12:10:16;;;;;;;10.45;4.28;;;43.20;63.50;;;;;;5100887;28;20019;-52
2022/07/23 12:12:44;;;;;;;27.40;8.27;;;42.90;61.40;;;;;;5087821;28;20114;-56
2022/07/23 12:15:14;;;;;;;6.85;4.22;;;43.20;62.60;;;;;;5074799;28;20036;-52
2022/07/23 12:17:43;;;;;;;7.43;3.92;;;42.90;61.40;;;;;;5106564;28;20489;-55
2022/07/23 12:20:13;;;;;;;8.27;4.55;;;43.00;62.40;;;;;;5107634;28;20027;-53
2022/07/23 12:22:44;;;;;;;8.55;4.75;;;43.00;61.30;;;;;;5100937;28;20036;-53
2022/07/23 12:25:15;;;;;;;10.10;4.93;;;42.90;61.30;;;;;;5108232;28;20493;-53
2022/07/23 12:27:42;;;;;;;8.63;4.70;;;42.80;61.90;;;;;;5105383;28;20078;-56
2022/07/23 12:30:18;;;;;;;7.10;4.22;;;42.90;61.60;;;;;;5103509;28;20027;-56
2022/07/23 12:32:46;;;;;;;5.95;4.63;;;42.50;61.40;;;;;;5101185;28;20024;-56
2022/07/23 12:35:12;;;;;;;8.13;4.40;;;42.40;61.50;;;;;;5098465;28;20066;-57
2022/07/23 12:37:40;;;;;;;6.32;4.00;;;42.60;61.50;;;;;;5104417;28;20055;-54
2022/07/23 12:40:27;;;;;;;10.23;4.32;;;42.30;61.50;;;;;;5105188;28;20030;-54
2022/07/23 12:43:05;;;;;;;6.85;4.22;;;42.30;62.10;;;;;;5104424;28;20031;-52
2022/07/23 12:45:52;;;;;;;8.88;4.20;;;42.20;61.90;;;;;;5097295;28;20540;-54
2022/07/23 12:48:25;;;;;;;7.13;4.03;;;42.80;62.40;;;;;;5067967;28;20123;-58
2022/07/23 12:50:54;;;;;;;5.10;4.22;;;43.00;61.70;;;;;;5067299;28;20090;-51
2022/07/23 12:53:23;;;;;;;12.65;5.15;;;43.30;62.30;;;;;;5067261;28;20032;-57
2022/07/23 12:55:51;;;;;;;7.82;4.78;;;43.30;63.10;;;;;;5067314;28;20108;-51
2022/07/23 12:58:18;;;;;;;9.98;4.25;;;43.30;63.10;;;;;;5066712;28;20086;-54
2022/07/23 13:00:55;;;;;;;6.82;4.32;;;43.10;63.00;;;;;;5066661;28;20064;-56
2022/07/23 13:03:34;;;;;;;11.38;4.55;;;43.40;62.60;;;;;;5066570;28;20103;-52
2022/07/23 13:06:00;;;;;;;7.95;4.18;;;;;;;;;;5032821;28;20156;-59
2022/07/23 13:08:29;;;;;;;8.15;4.25;;;43.60;61.60;;;;;;5065183;28;20050;-62
2022/07/23 13:10:55;;;;;;;7.15;4.40;;;43.40;62.00;;;;;;5040237;28;20608;-58
2022/07/23 13:13:23;;;;;;;7.07;4.30;;;43.20;61.80;;;;;;5060895;28;20163;-59
2022/07/23 13:15:49;;;;;;;7.13;4.00;;;43.20;62.00;;;;;;5057844;28;20059;-56
2022/07/23 13:18:16;;;;;;;11.00;5.03;;;43.50;63.80;;;;;;5068539;28;20560;-57
2022/07/23 13:20:43;;;;;;;10.93;4.70;;;43.50;63.30;;;;;;5021349;28;20079;-55
2022/07/23 13:23:09;;;;;;;9.10;5.43;;;43.60;62.20;;;;;;5071324;28;20451;-56
2022/07/23 13:25:35;;;;;;;4.93;4.18;;;43.20;62.20;;;;;;5067424;28;20134;-58
2022/07/23 13:28:01;;;;;;;9.90;4.20;;;;;;;;;;5120719;27;20043;-56
2022/07/23 13:30:27;;;;;;;9.30;4.10;;;43.00;63.00;;;;;;5103701;28;20036;-57
2022/07/23 13:32:53;;;;;;;9.75;4.82;;;43.00;62.80;;;;;;5103566;28;20035;-57
2022/07/23 13:35:19;;;;;;;7.28;4.10;;;43.30;62.40;;;;;;5110135;28;20089;-57
2022/07/23 13:37:44;;;;;;;11.02;3.88;;;43.60;61.40;;;;;;5090565;28;20514;-55
2022/07/23 13:40:10;;;;;;;8.10;4.78;;;43.50;61.30;;;;;;5108952;28;20019;-58
2022/07/23 13:42:37;;;;;;;6.95;3.95;;;43.40;61.80;;;;;;5123190;27;20047;-54
2022/07/23 13:45:05;;;;;;;7.00;4.28;;;43.30;61.60;;;;;;5106344;28;20028;-58
2022/07/23 13:47:31;;;;;;;8.32;4.57;;;43.10;60.60;;;;;;5085134;28;20142;-58
2022/07/23 13:49:57;;;;;;;6.82;4.25;;;43.00;61.60;;;;;;5109166;28;20031;-56
2022/07/23 13:52:23;;;;;;;8.07;4.55;;;43.10;61.00;;;;;;5107955;28;20382;-55
2022/07/23 13:54:48;;;;;;;6.45;4.30;;;43.00;61.20;;;;;;5107178;27;20024;-53
2022/07/23 13:57:14;;;;;;;10.88;5.30;;;43.10;60.60;;;;;;5107647;28;20447;-55